createdAt,value
2023-01-15T00:00:59.678Z,3.57
2023-01-15T00:04:04.957Z,3.58
2023-01-15T00:07:07.665Z,3.48
2023-01-15T00:10:11.273Z,3.50
2023-01-15T00:13:14.703Z,3.40
2023-01-15T00:16:21.287Z,3.39
2023-01-15T00:19:23.927Z,3.45
2023-01-15T00:22:26.889Z,3.38
2023-01-15T00:25:48.029Z,3.53
2023-01-15T00:28:50.719Z,3.51
2023-01-15T00:32:03.317Z,3.62
2023-01-15T00:35:06.903Z,3.66
2023-01-15T00:38:09.537Z,3.71
2023-01-15T00:41:13.709Z,3.67
2023-01-15T00:44:16.598Z,3.53
2023-01-15T00:47:19.607Z,3.45
2023-01-15T00:50:25.150Z,3.48
2023-01-15T00:53:28.053Z,3.48
2023-01-15T00:56:30.896Z,3.56
2023-01-15T00:59:33.670Z,3.43
2023-01-15T01:02:36.388Z,3.46
2023-01-15T01:05:39.168Z,3.47
2023-01-15T01:08:41.865Z,3.43
2023-01-15T01:11:44.945Z,3.40
2023-01-15T01:14:48.046Z,3.48
2023-01-15T01:17:51.894Z,3.39
2023-01-15T01:20:55.006Z,3.38
2023-01-15T01:24:01.443Z,3.31
2023-01-15T01:27:04.377Z,3.35
2023-01-15T01:30:07.923Z,3.35
2023-01-15T01:33:11.373Z,3.36
2023-01-15T01:36:14.073Z,3.46
2023-01-15T01:39:19.842Z,3.35
2023-01-15T01:42:23.011Z,3.29
2023-01-15T01:45:29.476Z,3.29
2023-01-15T01:48:34.608Z,3.37
2023-01-15T01:51:51.103Z,3.40
2023-01-15T01:54:54.395Z,3.32
2023-01-15T01:58:00.695Z,3.52
2023-01-15T02:01:06.041Z,3.32
2023-01-15T02:04:10.853Z,3.26
2023-01-15T02:07:15.480Z,3.32
2023-01-15T02:10:18.778Z,3.37
2023-01-15T02:13:36.209Z,3.53
2023-01-15T02:16:56.927Z,3.54
2023-01-15T02:20:12.729Z,3.54
2023-01-15T02:23:32.224Z,3.38
2023-01-15T02:27:07.355Z,3.30
2023-01-15T02:30:21.173Z,3.30
2023-01-15T02:34:01.649Z,3.29
2023-01-15T02:37:09.420Z,3.26
2023-01-15T02:40:14.347Z,3.21
2023-01-15T02:43:20.435Z,3.21
2023-01-15T02:46:29.162Z,3.27
2023-01-15T02:49:33.384Z,3.24
2023-01-15T02:52:47.359Z,3.24
2023-01-15T02:55:57.665Z,3.15
2023-01-15T02:59:10.925Z,3.12
2023-01-15T03:02:21.056Z,3.15
2023-01-15T03:05:31.251Z,3.24
2023-01-15T03:08:34.428Z,3.19
2023-01-15T03:11:44.612Z,3.29
2023-01-15T03:15:08.590Z,3.25
2023-01-15T03:18:15.561Z,3.20
2023-01-15T03:21:27.608Z,3.22
2023-01-15T03:24:42.595Z,3.28
2023-01-15T03:27:45.396Z,3.22
2023-01-15T03:30:52.122Z,3.28
2023-01-15T03:33:55.550Z,3.27
2023-01-15T03:36:59.740Z,3.26
2023-01-15T03:40:04.519Z,3.27
2023-01-15T03:43:34.066Z,3.34
2023-01-15T03:47:07.573Z,3.34
2023-01-15T03:50:27.744Z,3.29
2023-01-15T03:53:39.327Z,3.26
2023-01-15T03:56:58.470Z,3.20
2023-01-15T04:00:10.083Z,3.27
2023-01-15T04:03:22.720Z,3.22
2023-01-15T04:06:29.264Z,3.13
2023-01-15T04:09:38.091Z,3.14
2023-01-15T04:12:42.235Z,3.08
2023-01-15T04:15:46.707Z,3.05
2023-01-15T04:18:50.217Z,3.14
2023-01-15T04:21:54.980Z,3.05
2023-01-15T04:24:57.446Z,3.04
2023-01-15T04:28:00.685Z,3.03
2023-01-15T04:31:04.354Z,3.00
2023-01-15T04:34:07.475Z,2.98
2023-01-15T04:37:10.134Z,2.95
2023-01-15T04:40:33.501Z,2.94
2023-01-15T04:43:55.013Z,2.95
2023-01-15T04:47:00.091Z,2.90
2023-01-15T04:50:02.832Z,2.89
2023-01-15T04:53:06.653Z,2.90
2023-01-15T04:56:09.203Z,2.86
2023-01-15T04:59:12.551Z,2.87
2023-01-15T05:02:15.775Z,2.91
2023-01-15T05:05:19.205Z,2.88
2023-01-15T05:08:22.106Z,2.93
2023-01-15T05:11:24.899Z,2.91
2023-01-15T05:14:27.793Z,2.97
2023-01-15T05:17:33.015Z,2.87
2023-01-15T05:20:38.507Z,2.88
2023-01-15T05:23:41.440Z,2.85
2023-01-15T05:26:44.360Z,2.88
2023-01-15T05:29:48.155Z,2.88
2023-01-15T05:32:51.829Z,2.87
2023-01-15T05:35:54.739Z,2.82
2023-01-15T05:39:01.944Z,2.85
2023-01-15T05:42:05.106Z,2.78
2023-01-15T05:45:08.271Z,2.82
2023-01-15T05:48:11.825Z,2.77
2023-01-15T05:51:15.244Z,2.78
2023-01-15T05:54:20.894Z,2.73
2023-01-15T05:57:23.367Z,2.72
2023-01-15T06:00:30.411Z,2.78
2023-01-15T06:03:33.062Z,2.74
2023-01-15T06:06:36.730Z,2.75
2023-01-15T06:09:39.414Z,2.74
2023-01-15T06:12:42.423Z,2.82
2023-01-15T06:15:45.215Z,2.78
2023-01-15T06:18:48.364Z,2.79
2023-01-15T06:21:51.916Z,2.75
2023-01-15T06:24:55.059Z,2.75
2023-01-15T06:27:58.491Z,2.76
2023-01-15T06:31:06.318Z,2.77
2023-01-15T06:34:08.848Z,2.66
2023-01-15T06:37:12.229Z,2.72
2023-01-15T06:40:29.179Z,2.74
2023-01-15T06:43:50.479Z,2.68
2023-01-15T06:47:11.677Z,2.58
2023-01-15T06:50:16.147Z,2.60
2023-01-15T06:53:19.605Z,2.53
2023-01-15T06:56:22.521Z,2.52
2023-01-15T06:59:25.090Z,2.42
2023-01-15T07:02:28.292Z,2.39
2023-01-15T07:05:30.970Z,2.39
2023-01-15T07:08:34.630Z,2.40
2023-01-15T07:11:49.468Z,2.36
2023-01-15T07:14:52.790Z,2.33
2023-01-15T07:17:56.302Z,2.29
2023-01-15T07:20:59.811Z,2.27
2023-01-15T07:24:02.565Z,2.23
2023-01-15T07:27:06.376Z,2.23
2023-01-15T07:30:09.537Z,2.26
2023-01-15T07:33:14.962Z,2.23
2023-01-15T07:36:17.480Z,2.30
2023-01-15T07:39:20.864Z,2.34
2023-01-15T07:42:42.304Z,2.30
2023-01-15T07:46:07.933Z,2.41
2023-01-15T07:49:30.192Z,2.41
2023-01-15T07:52:33.553Z,2.51
2023-01-15T07:55:36.466Z,2.49
2023-01-15T07:58:39.203Z,2.47
2023-01-15T08:01:42.063Z,2.46
2023-01-15T08:04:45.611Z,2.47
2023-01-15T08:07:49.270Z,2.39
2023-01-15T08:11:12.087Z,2.40
2023-01-15T08:14:33.713Z,2.47
2023-01-15T08:17:37.834Z,2.52
2023-01-15T08:20:47.424Z,2.50
2023-01-15T08:23:51.437Z,2.54
2023-01-15T08:26:54.427Z,2.56
2023-01-15T08:29:57.653Z,2.57
2023-01-15T08:33:03.098Z,2.67
2023-01-15T08:36:06.387Z,2.68
2023-01-15T08:39:08.891Z,2.76
2023-01-15T08:42:12.058Z,2.72
2023-01-15T08:45:15.040Z,2.80
2023-01-15T08:48:17.699Z,2.87
2023-01-15T08:51:20.961Z,2.85
2023-01-15T08:54:26.979Z,2.78
2023-01-15T08:57:49.730Z,2.89
2023-01-15T09:01:16.262Z,2.94
2023-01-15T09:04:20.890Z,3.02
2023-01-15T09:07:23.948Z,3.05
2023-01-15T09:10:26.584Z,3.13
2023-01-15T09:13:30.484Z,3.17
2023-01-15T09:16:33.751Z,3.19
2023-01-15T09:19:37.318Z,3.16
2023-01-15T09:22:40.420Z,3.25
2023-01-15T09:26:01.567Z,3.40
2023-01-15T09:29:05.635Z,3.45
2023-01-15T09:32:10.214Z,3.52
2023-01-15T09:35:12.888Z,3.55
2023-01-15T09:38:17.365Z,3.59
2023-01-15T09:41:39.856Z,3.68
2023-01-15T09:45:01.690Z,3.66
2023-01-15T09:48:18.230Z,3.68
2023-01-15T09:51:47.867Z,3.73
2023-01-15T09:54:53.223Z,3.80
2023-01-15T09:57:59.468Z,3.78
2023-01-15T10:01:03.388Z,3.73
2023-01-15T10:04:38.181Z,3.69
2023-01-15T10:07:49.617Z,3.73
2023-01-15T10:10:57.891Z,3.69
2023-01-15T10:14:11.159Z,3.81
2023-01-15T10:17:22.779Z,3.70
2023-01-15T10:20:40.340Z,3.74
2023-01-15T10:23:56.288Z,3.74
2023-01-15T10:27:00.049Z,3.80
2023-01-15T10:30:18.340Z,3.89
2023-01-15T10:33:26.836Z,3.84
2023-01-15T10:36:37.111Z,3.87
2023-01-15T10:40:03.365Z,3.92
2023-01-15T10:43:18.457Z,4.00
2023-01-15T10:46:27.280Z,3.98
2023-01-15T10:49:30.964Z,4.09
2023-01-15T10:52:36.999Z,4.06
2023-01-15T10:55:50.356Z,4.02
2023-01-15T10:59:05.197Z,4.04
2023-01-15T11:02:29.828Z,4.13
2023-01-15T11:05:33.615Z,4.22
2023-01-15T11:09:07.327Z,4.16
2023-01-15T11:12:20.379Z,4.14
2023-01-15T11:15:44.368Z,4.13
2023-01-15T11:19:05.836Z,4.26
2023-01-15T11:22:14.211Z,4.21
2023-01-15T11:25:29.874Z,4.33
2023-01-15T11:28:36.628Z,4.40
2023-01-15T11:31:40.832Z,4.35
2023-01-15T11:34:53.632Z,4.41
2023-01-15T11:38:07.285Z,4.50
2023-01-15T11:41:54.197Z,4.47
2023-01-15T11:45:16.512Z,4.49
2023-01-15T11:48:41.233Z,4.49
2023-01-15T11:51:48.845Z,4.50
2023-01-15T11:54:54.519Z,4.46
2023-01-15T11:57:58.482Z,4.46
2023-01-15T12:01:01.787Z,4.48
2023-01-15T12:04:08.217Z,4.62
2023-01-15T12:07:14.246Z,4.60
2023-01-15T12:10:53.601Z,4.59
2023-01-15T12:14:31.685Z,4.72
2023-01-15T12:18:17.012Z,4.67
2023-01-15T12:21:45.165Z,4.70
2023-01-15T12:25:15.142Z,4.77
2023-01-15T12:28:32.469Z,4.78
2023-01-15T12:31:43.927Z,4.81
2023-01-15T12:34:56.615Z,4.90
2023-01-15T12:38:13.195Z,5.08
2023-01-15T12:41:26.372Z,5.19
2023-01-15T12:44:47.706Z,5.10
2023-01-15T12:47:58.698Z,5.01
2023-01-15T12:51:04.600Z,4.96
2023-01-15T12:54:15.413Z,4.91
2023-01-15T12:57:42.974Z,4.99
2023-01-15T13:00:46.278Z,4.95
2023-01-15T13:04:04.404Z,4.98
2023-01-15T13:07:33.963Z,4.88
2023-01-15T13:10:40.762Z,4.92
2023-01-15T13:13:58.397Z,4.89
2023-01-15T13:17:08.913Z,4.97
2023-01-15T13:20:43.868Z,4.99
2023-01-15T13:23:48.842Z,5.04
2023-01-15T13:27:09.948Z,4.97
2023-01-15T13:30:43.429Z,4.91
2023-01-15T13:33:56.252Z,4.93
2023-01-15T13:37:05.480Z,4.92
2023-01-15T13:40:23.853Z,4.97
2023-01-15T13:43:42.887Z,5.01
2023-01-15T13:46:48.681Z,4.92
2023-01-15T13:49:56.560Z,4.91
2023-01-15T13:53:25.755Z,4.88
2023-01-15T13:56:32.289Z,4.94
2023-01-15T13:59:41.221Z,4.91
2023-01-15T14:02:52.672Z,4.82
2023-01-15T14:05:58.432Z,4.84
2023-01-15T14:09:00.855Z,4.77
2023-01-15T14:12:27.868Z,4.81
2023-01-15T14:15:57.010Z,4.73
2023-01-15T14:19:21.952Z,4.75
2023-01-15T14:22:44.023Z,4.74
2023-01-15T14:25:55.027Z,4.66
2023-01-15T14:29:26.157Z,4.68
2023-01-15T14:32:57.219Z,4.66
2023-01-15T14:36:16.473Z,4.68
2023-01-15T14:39:25.181Z,4.62
2023-01-15T14:42:56.681Z,4.52
2023-01-15T14:46:11.500Z,4.53
2023-01-15T14:49:29.339Z,4.54
2023-01-15T14:52:32.792Z,4.50
2023-01-15T14:55:41.102Z,4.54
2023-01-15T14:59:36.076Z,4.58
2023-01-15T15:02:43.866Z,4.69
2023-01-15T15:05:47.744Z,4.80
2023-01-15T15:08:53.028Z,4.86
2023-01-15T15:12:20.942Z,4.82
2023-01-15T15:15:26.807Z,4.79
2023-01-15T15:18:42.556Z,4.84
2023-01-15T15:21:47.583Z,4.77
2023-01-15T15:24:54.288Z,4.66
2023-01-15T15:28:05.117Z,4.65
2023-01-15T15:31:10.566Z,4.70
2023-01-15T15:34:23.253Z,4.69
2023-01-15T15:37:28.451Z,4.75
2023-01-15T15:40:36.458Z,4.77
2023-01-15T15:44:16.275Z,4.75
2023-01-15T15:47:43.177Z,4.74
2023-01-15T15:50:48.176Z,4.66
2023-01-15T15:53:50.875Z,4.66
2023-01-15T15:56:57.562Z,4.69
2023-01-15T16:00:01.280Z,4.61
2023-01-15T16:03:18.290Z,4.59
2023-01-15T16:06:27.109Z,4.56
2023-01-15T16:09:30.319Z,4.61
2023-01-15T16:12:40.805Z,4.53
2023-01-15T16:15:44.264Z,4.69
2023-01-15T16:18:56.051Z,4.63
2023-01-15T16:21:58.823Z,4.60
2023-01-15T16:25:02.470Z,4.56
2023-01-15T16:28:05.877Z,4.45
2023-01-15T16:31:10.118Z,4.42
2023-01-15T16:34:22.537Z,4.40
2023-01-15T16:37:30.650Z,4.57
2023-01-15T16:40:37.419Z,4.53
2023-01-15T16:44:01.498Z,4.40
2023-01-15T16:47:05.667Z,4.38
2023-01-15T16:50:23.702Z,4.34
2023-01-15T16:53:29.729Z,4.26
2023-01-15T16:56:36.109Z,4.34
2023-01-15T16:59:44.849Z,4.34
2023-01-15T17:02:47.751Z,4.37
2023-01-15T17:05:54.479Z,4.32
2023-01-15T17:08:58.947Z,4.42
2023-01-15T17:12:35.659Z,4.42
2023-01-15T17:15:40.730Z,4.44
2023-01-15T17:18:44.630Z,4.41
2023-01-15T17:21:47.639Z,4.45
2023-01-15T17:24:52.772Z,4.39
2023-01-15T17:27:56.053Z,4.42
2023-01-15T17:31:01.669Z,4.43
2023-01-15T17:34:04.587Z,4.43
2023-01-15T17:37:07.768Z,4.44
2023-01-15T17:40:11.436Z,4.47
2023-01-15T17:43:16.332Z,4.48
2023-01-15T17:46:19.257Z,4.47
2023-01-15T17:49:22.979Z,4.51
2023-01-15T17:52:25.757Z,4.50
2023-01-15T17:55:47.259Z,4.41
2023-01-15T17:59:11.055Z,4.52
2023-01-15T18:02:34.676Z,4.54
2023-01-15T18:05:38.356Z,4.42
2023-01-15T18:08:44.400Z,4.56
2023-01-15T18:11:47.412Z,4.60
2023-01-15T18:14:50.480Z,4.52
2023-01-15T18:17:53.313Z,4.57
2023-01-15T18:20:56.265Z,4.58
2023-01-15T18:23:59.952Z,4.64
2023-01-15T18:27:03.004Z,4.62
2023-01-15T18:30:06.550Z,4.62
2023-01-15T18:33:09.706Z,4.59
2023-01-15T18:36:14.120Z,4.67
2023-01-15T18:39:17.025Z,4.61
2023-01-15T18:42:38.074Z,4.57
2023-01-15T18:45:59.965Z,4.54
2023-01-15T18:49:02.678Z,4.48
2023-01-15T18:52:24.988Z,4.46
2023-01-15T18:55:28.134Z,4.43
2023-01-15T18:58:31.417Z,4.46
2023-01-15T19:01:34.418Z,4.45
2023-01-15T19:04:38.478Z,4.46
2023-01-15T19:07:45.464Z,4.45
2023-01-15T19:10:48.407Z,4.44
2023-01-15T19:14:11.983Z,4.40
2023-01-15T19:17:40.127Z,4.42
2023-01-15T19:20:43.165Z,4.41
2023-01-15T19:23:47.440Z,4.39
2023-01-15T19:26:50.807Z,4.40
2023-01-15T19:29:53.644Z,4.30
2023-01-15T19:32:56.736Z,4.36
2023-01-15T19:35:59.934Z,4.30
2023-01-15T19:39:03.253Z,4.24
2023-01-15T19:42:24.897Z,4.27
2023-01-15T19:45:46.421Z,4.28
2023-01-15T19:49:07.750Z,4.24
2023-01-15T19:52:29.056Z,4.15
2023-01-15T19:55:33.402Z,4.16
2023-01-15T19:58:37.184Z,4.16
2023-01-15T20:01:40.671Z,4.11
2023-01-15T20:04:45.719Z,4.05
2023-01-15T20:07:48.839Z,4.04
2023-01-15T20:10:51.740Z,4.13
2023-01-15T20:13:54.963Z,4.16
2023-01-15T20:16:57.348Z,4.16
2023-01-15T20:20:00.344Z,4.23
2023-01-15T20:23:03.008Z,4.20
2023-01-15T20:26:08.219Z,4.09
2023-01-15T20:29:11.237Z,4.14
2023-01-15T20:32:14.628Z,4.12
2023-01-15T20:35:23.641Z,4.10
2023-01-15T20:38:26.686Z,4.05
2023-01-15T20:41:48.048Z,4.01
2023-01-15T20:44:53.600Z,3.96
2023-01-15T20:48:11.643Z,3.94
2023-01-15T20:51:14.779Z,3.93
2023-01-15T20:54:17.798Z,3.96
2023-01-15T20:57:20.503Z,3.94
2023-01-15T21:00:24.064Z,3.96
2023-01-15T21:03:27.303Z,3.87
2023-01-15T21:06:30.051Z,3.84
2023-01-15T21:09:32.849Z,3.82
2023-01-15T21:12:36.397Z,3.84
2023-01-15T21:15:39.499Z,3.77
2023-01-15T21:18:45.050Z,3.74
2023-01-15T21:21:48.017Z,3.69
2023-01-15T21:24:51.601Z,3.72
2023-01-15T21:27:54.623Z,3.72
2023-01-15T21:30:57.963Z,3.76
2023-01-15T21:34:00.849Z,3.76
2023-01-15T21:37:03.330Z,3.81
2023-01-15T21:40:06.676Z,3.88
2023-01-15T21:43:48.071Z,3.82
2023-01-15T21:46:50.848Z,3.81
2023-01-15T21:49:53.506Z,3.84
2023-01-15T21:52:56.282Z,3.82
2023-01-15T21:55:58.745Z,3.82
2023-01-15T21:59:01.497Z,3.80
2023-01-15T22:02:05.022Z,3.79
2023-01-15T22:05:08.726Z,3.78
2023-01-15T22:08:11.552Z,3.75
2023-01-15T22:11:14.221Z,3.81
2023-01-15T22:14:17.909Z,3.73
2023-01-15T22:17:21.172Z,3.78
2023-01-15T22:20:23.766Z,3.75
2023-01-15T22:23:27.369Z,3.76
2023-01-15T22:26:30.838Z,3.77
2023-01-15T22:29:38.315Z,3.79
2023-01-15T22:32:40.871Z,3.83
2023-01-15T22:35:43.717Z,3.79
2023-01-15T22:38:47.187Z,3.79
2023-01-15T22:42:08.599Z,3.79
2023-01-15T22:45:11.353Z,3.77
2023-01-15T22:48:14.025Z,3.79
2023-01-15T22:51:16.764Z,3.88
2023-01-15T22:54:19.942Z,3.89
2023-01-15T22:57:23.488Z,3.86
2023-01-15T23:00:26.320Z,3.82
2023-01-15T23:03:29.114Z,3.88
2023-01-15T23:06:31.788Z,3.82
2023-01-15T23:09:35.228Z,3.87
2023-01-15T23:12:39.640Z,3.82
2023-01-15T23:15:42.497Z,3.79
2023-01-15T23:18:46.165Z,3.87
2023-01-15T23:21:48.553Z,3.79
2023-01-15T23:24:51.347Z,3.81
2023-01-15T23:27:53.768Z,3.80
2023-01-15T23:30:56.551Z,3.75
2023-01-15T23:33:59.510Z,3.77
2023-01-15T23:37:03.339Z,3.81
2023-01-15T23:40:07.164Z,3.87
2023-01-15T23:43:33.020Z,3.78
2023-01-15T23:46:35.892Z,3.82
2023-01-15T23:49:39.483Z,3.79
2023-01-15T23:52:41.884Z,3.84
2023-01-15T23:55:44.765Z,3.79
2023-01-15T23:58:47.704Z,3.70
